Minot, ND

6:36 PM CST on December 10, 2016 (GMT -0600)
Edgeview Estates | | Change Station

Elev 1752 ft 48.21 °N, 101.33 °W | Updated 9 seconds ago

Overcast
Overcast
-5.5 °F
Feels Like -17 °F
N
5.0
Wind Variable Wind from NNW
Gusts 9.0 mph

Today
High -- | Low -- °F
--% Chance of Precip.
Yesterday
High -- | Low -- °F
Precip. -- in
Pressure 30.27 in
Visibility 10.0 miles
Clouds Scattered Clouds 6000 ft
Overcast 9000 ft
Windchill -17 °F
Dew Point -11 °F
Humidity 76%
Rainfall 0.00 in
Snow Depth Not available.
8:25 AM 4:51 PM
Waxing Gibbous, 87% visible
METAR KMOT 102354Z 09012KT 10SM SCT060 OVC090 M21/M24 A3008 RMK AO2 SLP248 T12111239 11211 21239 56015
Pressure 30.27 in
Visibility 10.0 miles
Clouds Scattered Clouds 6000 ft
Overcast 9000 ft
Windchill -17 °F
Dew Point -11 °F
Humidity 76%
Rainfall 0.00 in
Snow Depth Not available.
8:25 AM 4:51 PM
Waxing Gibbous, 87% visible
METAR KMOT 102354Z 09012KT 10SM SCT060 OVC090 M21/M24 A3008 RMK AO2 SLP248 T12111239 11211 21239 56015

10-Day Weather Forecast

Almanac

Astronomy

Dec. 10, 2016 Rise Set
Actual Time
Civil Twilight
Nautical Twilight
Astronomical Twilight
Moon
Length of Visible Light
Length of Day
Tomorrow will be .
, % of the Moon is Illuminated

Today's Extremes

State Highs State Lows

Community

WunderPhotos

Upload Photos

1,956,685 photos uploaded!

WunderBlog® & News

Nearby

Air Quality

  Air Quality AQ Index Pollutant
Not available.

Snow Depth

Station Depth Elevation

Earthquake Activity

City Distance Mag. Time & Date
Minimum magnitude displayed is 2.5.

Coastal Water Temperatures

Place Temperature

Stations

Nearby Weather Stations

Station Location Temp. Windchill Dew Point Humidity Wind Precip. Elev Updated Type
                   

Watches & Warnings

There are currently no watches in effect.